sensor_id;sensor_type;location;lat;lon;timestamp;P1;durP1;ratioP1;P2;durP2;ratioP2
22837;SDS011;11585;51.450;-0.240;2022-07-23T00:00:17;7.18;;;2.85;;
22837;SDS011;11585;51.450;-0.240;2022-07-23T00:02:44;8.52;;;3.50;;
22837;SDS011;11585;51.450;-0.240;2022-07-23T00:05:10;6.60;;;2.88;;
22837;SDS011;11585;51.450;-0.240;2022-07-23T00:07:36;8.65;;;2.50;;
22837;SDS011;11585;51.450;-0.240;2022-07-23T00:10:02;8.70;;;2.75;;
22837;SDS011;11585;51.450;-0.240;2022-07-23T00:12:29;8.18;;;3.70;;
22837;SDS011;11585;51.450;-0.240;2022-07-23T00:14:54;7.65;;;3.35;;
22837;SDS011;11585;51.450;-0.240;2022-07-23T00:17:20;7.43;;;3.03;;
22837;SDS011;11585;51.450;-0.240;2022-07-23T00:19:46;6.93;;;3.33;;
22837;SDS011;11585;51.450;-0.240;2022-07-23T00:22:12;6.57;;;3.10;;
22837;SDS011;11585;51.450;-0.240;2022-07-23T00:24:38;6.75;;;2.75;;
22837;SDS011;11585;51.450;-0.240;2022-07-23T00:27:03;8.30;;;3.05;;
22837;SDS011;11585;51.450;-0.240;2022-07-23T00:29:29;7.60;;;2.97;;
22837;SDS011;11585;51.450;-0.240;2022-07-23T00:31:55;6.60;;;2.78;;
22837;SDS011;11585;51.450;-0.240;2022-07-23T00:34:21;7.28;;;3.13;;
22837;SDS011;11585;51.450;-0.240;2022-07-23T00:36:47;6.15;;;2.85;;
22837;SDS011;11585;51.450;-0.240;2022-07-23T00:39:13;6.50;;;2.88;;
22837;SDS011;11585;51.450;-0.240;2022-07-23T00:41:38;7.43;;;2.60;;
22837;SDS011;11585;51.450;-0.240;2022-07-23T00:44:14;5.90;;;3.22;;
22837;SDS011;11585;51.450;-0.240;2022-07-23T00:46:48;6.68;;;3.05;;
22837;SDS011;11585;51.450;-0.240;2022-07-23T00:49:26;5.13;;;2.85;;
22837;SDS011;11585;51.450;-0.240;2022-07-23T00:51:53;6.47;;;3.08;;
22837;SDS011;11585;51.450;-0.240;2022-07-23T00:54:19;6.22;;;3.25;;
22837;SDS011;11585;51.450;-0.240;2022-07-23T00:56:47;14.55;;;3.13;;
22837;SDS011;11585;51.450;-0.240;2022-07-23T00:59:13;5.70;;;3.13;;
22837;SDS011;11585;51.450;-0.240;2022-07-23T01:01:39;9.68;;;3.00;;
22837;SDS011;11585;51.450;-0.240;2022-07-23T01:04:06;11.00;;;3.13;;
22837;SDS011;11585;51.450;-0.240;2022-07-23T01:06:35;4.60;;;2.90;;
22837;SDS011;11585;51.450;-0.240;2022-07-23T01:09:03;8.57;;;3.40;;
22837;SDS011;11585;51.450;-0.240;2022-07-23T01:11:31;7.30;;;3.55;;
22837;SDS011;11585;51.450;-0.240;2022-07-23T01:13:58;7.90;;;3.22;;
22837;SDS011;11585;51.450;-0.240;2022-07-23T01:16:24;4.18;;;2.70;;
22837;SDS011;11585;51.450;-0.240;2022-07-23T01:18:49;9.20;;;3.08;;
22837;SDS011;11585;51.450;-0.240;2022-07-23T01:21:15;6.13;;;2.72;;
22837;SDS011;11585;51.450;-0.240;2022-07-23T01:23:43;8.68;;;3.28;;
22837;SDS011;11585;51.450;-0.240;2022-07-23T01:26:09;7.22;;;2.88;;
22837;SDS011;11585;51.450;-0.240;2022-07-23T01:28:35;7.38;;;2.95;;
22837;SDS011;11585;51.450;-0.240;2022-07-23T01:31:00;4.35;;;2.90;;
22837;SDS011;11585;51.450;-0.240;2022-07-23T01:33:26;8.25;;;3.05;;
22837;SDS011;11585;51.450;-0.240;2022-07-23T01:35:52;6.10;;;3.13;;
22837;SDS011;11585;51.450;-0.240;2022-07-23T01:38:18;6.35;;;3.38;;
22837;SDS011;11585;51.450;-0.240;2022-07-23T01:40:43;9.30;;;3.22;;
22837;SDS011;11585;51.450;-0.240;2022-07-23T01:43:09;8.45;;;3.17;;
22837;SDS011;11585;51.450;-0.240;2022-07-23T01:45:35;9.30;;;3.28;;
22837;SDS011;11585;51.450;-0.240;2022-07-23T01:48:00;9.00;;;3.10;;
22837;SDS011;11585;51.450;-0.240;2022-07-23T01:50:26;7.28;;;3.10;;
22837;SDS011;11585;51.450;-0.240;2022-07-23T01:52:51;9.55;;;3.00;;
22837;SDS011;11585;51.450;-0.240;2022-07-23T01:55:17;7.72;;;2.88;;
22837;SDS011;11585;51.450;-0.240;2022-07-23T01:57:43;7.03;;;3.00;;
22837;SDS011;11585;51.450;-0.240;2022-07-23T02:00:09;6.32;;;2.80;;
22837;SDS011;11585;51.450;-0.240;2022-07-23T02:02:35;6.82;;;2.90;;
22837;SDS011;11585;51.450;-0.240;2022-07-23T02:05:00;4.20;;;3.08;;
22837;SDS011;11585;51.450;-0.240;2022-07-23T02:07:26;8.75;;;2.63;;
22837;SDS011;11585;51.450;-0.240;2022-07-23T02:09:52;3.60;;;2.65;;
22837;SDS011;11585;51.450;-0.240;2022-07-23T02:12:17;6.30;;;2.50;;
22837;SDS011;11585;51.450;-0.240;2022-07-23T02:14:43;8.20;;;3.35;;
22837;SDS011;11585;51.450;-0.240;2022-07-23T02:17:08;7.80;;;3.15;;
22837;SDS011;11585;51.450;-0.240;2022-07-23T02:19:34;9.68;;;3.03;;
22837;SDS011;11585;51.450;-0.240;2022-07-23T02:22:00;7.20;;;2.95;;
22837;SDS011;11585;51.450;-0.240;2022-07-23T02:24:26;5.65;;;2.75;;
22837;SDS011;11585;51.450;-0.240;2022-07-23T02:26:51;6.68;;;2.85;;
22837;SDS011;11585;51.450;-0.240;2022-07-23T02:29:17;5.78;;;3.05;;
22837;SDS011;11585;51.450;-0.240;2022-07-23T02:31:43;5.85;;;3.42;;
22837;SDS011;11585;51.450;-0.240;2022-07-23T02:34:09;6.30;;;2.72;;
22837;SDS011;11585;51.450;-0.240;2022-07-23T02:36:36;7.32;;;3.03;;
22837;SDS011;11585;51.450;-0.240;2022-07-23T02:39:03;9.70;;;4.18;;
22837;SDS011;11585;51.450;-0.240;2022-07-23T02:41:29;6.03;;;3.42;;
22837;SDS011;11585;51.450;-0.240;2022-07-23T02:43:54;8.55;;;3.30;;
22837;SDS011;11585;51.450;-0.240;2022-07-23T02:46:20;9.40;;;3.20;;
22837;SDS011;11585;51.450;-0.240;2022-07-23T02:48:46;4.82;;;3.20;;
22837;SDS011;11585;51.450;-0.240;2022-07-23T02:51:12;6.55;;;3.17;;
22837;SDS011;11585;51.450;-0.240;2022-07-23T02:53:38;5.90;;;3.33;;
22837;SDS011;11585;51.450;-0.240;2022-07-23T02:56:03;9.57;;;3.25;;
22837;SDS011;11585;51.450;-0.240;2022-07-23T02:58:29;8.07;;;3.40;;
22837;SDS011;11585;51.450;-0.240;2022-07-23T03:00:55;14.55;;;5.95;;
22837;SDS011;11585;51.450;-0.240;2022-07-23T03:03:20;8.77;;;4.03;;
22837;SDS011;11585;51.450;-0.240;2022-07-23T03:05:46;6.30;;;3.53;;
22837;SDS011;11585;51.450;-0.240;2022-07-23T03:08:13;10.13;;;3.35;;
22837;SDS011;11585;51.450;-0.240;2022-07-23T03:10:38;7.47;;;3.58;;
22837;SDS011;11585;51.450;-0.240;2022-07-23T03:13:04;8.00;;;3.90;;
22837;SDS011;11585;51.450;-0.240;2022-07-23T03:15:30;7.75;;;3.65;;
22837;SDS011;11585;51.450;-0.240;2022-07-23T03:17:55;9.05;;;3.58;;
22837;SDS011;11585;51.450;-0.240;2022-07-23T03:20:21;6.38;;;2.92;;
22837;SDS011;11585;51.450;-0.240;2022-07-23T03:22:47;9.25;;;3.65;;
22837;SDS011;11585;51.450;-0.240;2022-07-23T03:25:12;8.18;;;3.38;;
22837;SDS011;11585;51.450;-0.240;2022-07-23T03:27:38;9.25;;;3.67;;
22837;SDS011;11585;51.450;-0.240;2022-07-23T03:30:04;10.55;;;3.60;;
22837;SDS011;11585;51.450;-0.240;2022-07-23T03:32:30;10.50;;;3.10;;
22837;SDS011;11585;51.450;-0.240;2022-07-23T03:34:56;10.07;;;3.40;;
22837;SDS011;11585;51.450;-0.240;2022-07-23T03:37:22;10.38;;;3.88;;
22837;SDS011;11585;51.450;-0.240;2022-07-23T03:39:48;8.68;;;3.70;;
22837;SDS011;11585;51.450;-0.240;2022-07-23T03:42:13;7.43;;;3.45;;
22837;SDS011;11585;51.450;-0.240;2022-07-23T03:44:39;5.00;;;3.25;;
22837;SDS011;11585;51.450;-0.240;2022-07-23T03:47:05;7.65;;;3.25;;
22837;SDS011;11585;51.450;-0.240;2022-07-23T03:49:31;8.75;;;3.88;;
22837;SDS011;11585;51.450;-0.240;2022-07-23T03:51:58;11.00;;;3.15;;
22837;SDS011;11585;51.450;-0.240;2022-07-23T03:54:24;6.70;;;3.40;;
22837;SDS011;11585;51.450;-0.240;2022-07-23T03:56:49;10.57;;;3.58;;
22837;SDS011;11585;51.450;-0.240;2022-07-23T03:59:15;12.73;;;3.58;;
22837;SDS011;11585;51.450;-0.240;2022-07-23T04:01:41;8.20;;;3.55;;
22837;SDS011;11585;51.450;-0.240;2022-07-23T04:04:07;5.85;;;3.70;;
22837;SDS011;11585;51.450;-0.240;2022-07-23T04:06:33;7.07;;;3.30;;
22837;SDS011;11585;51.450;-0.240;2022-07-23T04:09:00;7.20;;;3.33;;
22837;SDS011;11585;51.450;-0.240;2022-07-23T04:11:26;8.88;;;3.25;;
22837;SDS011;11585;51.450;-0.240;2022-07-23T04:13:51;5.70;;;3.80;;
22837;SDS011;11585;51.450;-0.240;2022-07-23T04:16:17;5.20;;;3.38;;
22837;SDS011;11585;51.450;-0.240;2022-07-23T04:18:43;7.20;;;3.30;;
22837;SDS011;11585;51.450;-0.240;2022-07-23T04:21:08;9.15;;;3.58;;
22837;SDS011;11585;51.450;-0.240;2022-07-23T04:23:34;7.03;;;3.53;;
22837;SDS011;11585;51.450;-0.240;2022-07-23T04:26:00;7.68;;;3.30;;
22837;SDS011;11585;51.450;-0.240;2022-07-23T04:28:26;9.77;;;3.90;;
22837;SDS011;11585;51.450;-0.240;2022-07-23T04:30:51;12.05;;;6.25;;
22837;SDS011;11585;51.450;-0.240;2022-07-23T04:33:17;11.02;;;4.47;;
22837;SDS011;11585;51.450;-0.240;2022-07-23T04:35:43;11.20;;;6.00;;
22837;SDS011;11585;51.450;-0.240;2022-07-23T04:38:09;8.82;;;4.38;;
22837;SDS011;11585;51.450;-0.240;2022-07-23T04:40:34;12.65;;;6.25;;
22837;SDS011;11585;51.450;-0.240;2022-07-23T04:43:00;8.32;;;4.72;;
22837;SDS011;11585;51.450;-0.240;2022-07-23T04:45:25;14.38;;;4.43;;
22837;SDS011;11585;51.450;-0.240;2022-07-23T04:47:51;12.68;;;5.03;;
22837;SDS011;11585;51.450;-0.240;2022-07-23T04:50:17;7.60;;;4.30;;
22837;SDS011;11585;51.450;-0.240;2022-07-23T04:52:46;10.45;;;4.95;;
22837;SDS011;11585;51.450;-0.240;2022-07-23T04:55:13;8.52;;;4.45;;
22837;SDS011;11585;51.450;-0.240;2022-07-23T04:57:39;10.23;;;4.07;;
22837;SDS011;11585;51.450;-0.240;2022-07-23T05:00:05;16.40;;;5.43;;
22837;SDS011;11585;51.450;-0.240;2022-07-23T05:02:32;16.30;;;6.85;;
22837;SDS011;11585;51.450;-0.240;2022-07-23T05:04:57;15.15;;;5.78;;
22837;SDS011;11585;51.450;-0.240;2022-07-23T05:07:24;11.68;;;5.70;;
22837;SDS011;11585;51.450;-0.240;2022-07-23T05:09:50;13.57;;;5.43;;
22837;SDS011;11585;51.450;-0.240;2022-07-23T05:12:15;16.05;;;5.70;;
22837;SDS011;11585;51.450;-0.240;2022-07-23T05:14:41;13.50;;;5.30;;
22837;SDS011;11585;51.450;-0.240;2022-07-23T05:17:07;8.63;;;3.97;;
22837;SDS011;11585;51.450;-0.240;2022-07-23T05:19:33;11.35;;;5.30;;
22837;SDS011;11585;51.450;-0.240;2022-07-23T05:21:59;7.25;;;4.35;;
22837;SDS011;11585;51.450;-0.240;2022-07-23T05:24:25;10.30;;;4.60;;
22837;SDS011;11585;51.450;-0.240;2022-07-23T05:26:51;9.10;;;4.40;;
22837;SDS011;11585;51.450;-0.240;2022-07-23T05:29:17;12.05;;;4.68;;
22837;SDS011;11585;51.450;-0.240;2022-07-23T05:31:42;11.32;;;5.00;;
22837;SDS011;11585;51.450;-0.240;2022-07-23T05:34:08;10.80;;;4.95;;
22837;SDS011;11585;51.450;-0.240;2022-07-23T05:36:34;7.70;;;4.60;;
22837;SDS011;11585;51.450;-0.240;2022-07-23T05:39:00;17.15;;;4.75;;
22837;SDS011;11585;51.450;-0.240;2022-07-23T05:41:26;7.95;;;4.38;;
22837;SDS011;11585;51.450;-0.240;2022-07-23T05:43:51;11.35;;;4.78;;
22837;SDS011;11585;51.450;-0.240;2022-07-23T05:46:17;13.77;;;4.85;;
22837;SDS011;11585;51.450;-0.240;2022-07-23T05:48:43;9.95;;;4.15;;
22837;SDS011;11585;51.450;-0.240;2022-07-23T05:51:11;12.40;;;4.47;;
22837;SDS011;11585;51.450;-0.240;2022-07-23T05:53:36;9.68;;;4.97;;
22837;SDS011;11585;51.450;-0.240;2022-07-23T05:56:03;14.60;;;4.60;;
22837;SDS011;11585;51.450;-0.240;2022-07-23T05:58:29;12.15;;;4.28;;
22837;SDS011;11585;51.450;-0.240;2022-07-23T06:00:54;9.10;;;4.47;;
22837;SDS011;11585;51.450;-0.240;2022-07-23T06:03:20;14.52;;;3.92;;
22837;SDS011;11585;51.450;-0.240;2022-07-23T06:05:46;9.68;;;4.68;;
22837;SDS011;11585;51.450;-0.240;2022-07-23T06:08:12;12.70;;;4.93;;
22837;SDS011;11585;51.450;-0.240;2022-07-23T06:10:38;13.05;;;4.38;;
22837;SDS011;11585;51.450;-0.240;2022-07-23T06:13:04;12.88;;;4.70;;
22837;SDS011;11585;51.450;-0.240;2022-07-23T06:15:29;13.00;;;4.57;;
22837;SDS011;11585;51.450;-0.240;2022-07-23T06:17:55;11.38;;;4.68;;
22837;SDS011;11585;51.450;-0.240;2022-07-23T06:20:21;12.55;;;4.88;;
22837;SDS011;11585;51.450;-0.240;2022-07-23T06:22:47;11.38;;;4.03;;
22837;SDS011;11585;51.450;-0.240;2022-07-23T06:25:12;9.60;;;4.60;;
22837;SDS011;11585;51.450;-0.240;2022-07-23T06:27:38;8.07;;;4.05;;
22837;SDS011;11585;51.450;-0.240;2022-07-23T06:30:04;12.10;;;4.95;;
22837;SDS011;11585;51.450;-0.240;2022-07-23T06:32:31;8.77;;;3.72;;
22837;SDS011;11585;51.450;-0.240;2022-07-23T06:34:56;12.27;;;4.93;;
22837;SDS011;11585;51.450;-0.240;2022-07-23T06:37:22;12.77;;;4.80;;
22837;SDS011;11585;51.450;-0.240;2022-07-23T06:39:48;11.38;;;4.10;;
22837;SDS011;11585;51.450;-0.240;2022-07-23T06:42:14;10.93;;;4.70;;
22837;SDS011;11585;51.450;-0.240;2022-07-23T06:44:40;10.05;;;4.40;;
22837;SDS011;11585;51.450;-0.240;2022-07-23T06:47:05;12.77;;;4.68;;
22837;SDS011;11585;51.450;-0.240;2022-07-23T06:49:31;11.55;;;5.20;;
22837;SDS011;11585;51.450;-0.240;2022-07-23T06:51:57;16.30;;;5.00;;
22837;SDS011;11585;51.450;-0.240;2022-07-23T06:54:23;11.77;;;4.95;;
22837;SDS011;11585;51.450;-0.240;2022-07-23T06:56:48;8.35;;;4.10;;
22837;SDS011;11585;51.450;-0.240;2022-07-23T06:59:14;12.27;;;4.72;;
22837;SDS011;11585;51.450;-0.240;2022-07-23T07:01:40;10.38;;;4.63;;
22837;SDS011;11585;51.450;-0.240;2022-07-23T07:04:05;10.27;;;4.93;;
22837;SDS011;11585;51.450;-0.240;2022-07-23T07:06:31;17.23;;;4.90;;
22837;SDS011;11585;51.450;-0.240;2022-07-23T07:08:57;7.60;;;4.35;;
22837;SDS011;11585;51.450;-0.240;2022-07-23T07:11:22;10.75;;;4.72;;
22837;SDS011;11585;51.450;-0.240;2022-07-23T07:13:50;11.93;;;4.75;;
22837;SDS011;11585;51.450;-0.240;2022-07-23T07:16:16;9.25;;;4.32;;
22837;SDS011;11585;51.450;-0.240;2022-07-23T07:18:42;13.73;;;5.28;;
22837;SDS011;11585;51.450;-0.240;2022-07-23T07:21:07;13.95;;;5.32;;
22837;SDS011;11585;51.450;-0.240;2022-07-23T07:23:33;11.63;;;5.53;;
22837;SDS011;11585;51.450;-0.240;2022-07-23T07:25:59;16.35;;;6.32;;
22837;SDS011;11585;51.450;-0.240;2022-07-23T07:28:25;15.75;;;4.95;;
22837;SDS011;11585;51.450;-0.240;2022-07-23T07:30:51;12.20;;;5.55;;
22837;SDS011;11585;51.450;-0.240;2022-07-23T07:33:16;11.43;;;5.00;;
22837;SDS011;11585;51.450;-0.240;2022-07-23T07:35:42;18.50;;;5.55;;
22837;SDS011;11585;51.450;-0.240;2022-07-23T07:38:08;10.23;;;5.80;;
22837;SDS011;11585;51.450;-0.240;2022-07-23T07:40:33;12.35;;;5.70;;
22837;SDS011;11585;51.450;-0.240;2022-07-23T07:42:59;17.88;;;6.53;;
22837;SDS011;11585;51.450;-0.240;2022-07-23T07:45:26;13.35;;;5.82;;
22837;SDS011;11585;51.450;-0.240;2022-07-23T07:47:52;13.05;;;5.70;;
22837;SDS011;11585;51.450;-0.240;2022-07-23T07:50:19;10.52;;;5.03;;
22837;SDS011;11585;51.450;-0.240;2022-07-23T07:52:45;15.48;;;6.63;;
22837;SDS011;11585;51.450;-0.240;2022-07-23T07:55:11;10.85;;;5.40;;
22837;SDS011;11585;51.450;-0.240;2022-07-23T07:57:37;13.20;;;5.60;;
22837;SDS011;11585;51.450;-0.240;2022-07-23T08:00:06;10.57;;;5.45;;
22837;SDS011;11585;51.450;-0.240;2022-07-23T08:02:48;9.73;;;5.22;;
22837;SDS011;11585;51.450;-0.240;2022-07-23T08:07:47;9.73;;;4.65;;
22837;SDS011;11585;51.450;-0.240;2022-07-23T08:10:13;9.95;;;4.38;;
22837;SDS011;11585;51.450;-0.240;2022-07-23T08:15:06;7.75;;;4.47;;
22837;SDS011;11585;51.450;-0.240;2022-07-23T08:17:32;10.35;;;3.88;;
22837;SDS011;11585;51.450;-0.240;2022-07-23T08:19:58;7.43;;;3.50;;
22837;SDS011;11585;51.450;-0.240;2022-07-23T08:22:24;10.63;;;3.72;;
22837;SDS011;11585;51.450;-0.240;2022-07-23T08:24:49;9.27;;;3.67;;
22837;SDS011;11585;51.450;-0.240;2022-07-23T08:27:15;8.60;;;3.75;;
22837;SDS011;11585;51.450;-0.240;2022-07-23T08:29:41;10.77;;;3.70;;
22837;SDS011;11585;51.450;-0.240;2022-07-23T08:32:07;5.97;;;3.50;;
22837;SDS011;11585;51.450;-0.240;2022-07-23T08:34:32;6.97;;;3.63;;
22837;SDS011;11585;51.450;-0.240;2022-07-23T08:36:58;8.32;;;3.45;;
22837;SDS011;11585;51.450;-0.240;2022-07-23T08:39:24;10.02;;;3.60;;
22837;SDS011;11585;51.450;-0.240;2022-07-23T08:41:49;7.57;;;3.10;;
22837;SDS011;11585;51.450;-0.240;2022-07-23T08:44:15;7.47;;;2.97;;
22837;SDS011;11585;51.450;-0.240;2022-07-23T08:46:41;10.07;;;3.13;;
22837;SDS011;11585;51.450;-0.240;2022-07-23T08:49:10;6.57;;;3.25;;
22837;SDS011;11585;51.450;-0.240;2022-07-23T08:51:37;9.03;;;3.37;;
22837;SDS011;11585;51.450;-0.240;2022-07-23T08:54:03;8.80;;;3.42;;
22837;SDS011;11585;51.450;-0.240;2022-07-23T08:56:29;5.25;;;3.00;;
22837;SDS011;11585;51.450;-0.240;2022-07-23T08:58:55;9.23;;;2.88;;
22837;SDS011;11585;51.450;-0.240;2022-07-23T09:01:20;5.60;;;3.17;;
22837;SDS011;11585;51.450;-0.240;2022-07-23T09:03:46;9.98;;;3.65;;
22837;SDS011;11585;51.450;-0.240;2022-07-23T09:06:12;6.78;;;3.00;;
22837;SDS011;11585;51.450;-0.240;2022-07-23T09:11:06;11.27;;;3.50;;
22837;SDS011;11585;51.450;-0.240;2022-07-23T09:13:49;7.20;;;3.20;;
22837;SDS011;11585;51.450;-0.240;2022-07-23T09:16:25;5.32;;;2.45;;
22837;SDS011;11585;51.450;-0.240;2022-07-23T09:26:39;6.18;;;2.80;;
22837;SDS011;11585;51.450;-0.240;2022-07-23T09:29:08;18.58;;;6.20;;
22837;SDS011;11585;51.450;-0.240;2022-07-23T09:39:08;12.23;;;3.05;;
22837;SDS011;11585;51.450;-0.240;2022-07-23T09:41:42;8.88;;;2.80;;
22837;SDS011;11585;51.450;-0.240;2022-07-23T09:44:10;7.25;;;3.00;;
22837;SDS011;11585;51.450;-0.240;2022-07-23T09:46:37;5.28;;;3.15;;
22837;SDS011;11585;51.450;-0.240;2022-07-23T09:49:20;6.03;;;2.60;;
22837;SDS011;11585;51.450;-0.240;2022-07-23T09:51:57;10.15;;;2.95;;
22837;SDS011;11585;51.450;-0.240;2022-07-23T09:54:27;7.45;;;2.80;;
22837;SDS011;11585;51.450;-0.240;2022-07-23T09:56:58;12.95;;;4.22;;
22837;SDS011;11585;51.450;-0.240;2022-07-23T09:59:29;9.23;;;3.55;;
22837;SDS011;11585;51.450;-0.240;2022-07-23T10:01:56;6.28;;;2.80;;
22837;SDS011;11585;51.450;-0.240;2022-07-23T10:04:24;9.18;;;3.40;;
22837;SDS011;11585;51.450;-0.240;2022-07-23T10:06:56;7.80;;;3.40;;
22837;SDS011;11585;51.450;-0.240;2022-07-23T10:09:26;8.18;;;2.55;;
22837;SDS011;11585;51.450;-0.240;2022-07-23T10:11:55;9.13;;;3.17;;
22837;SDS011;11585;51.450;-0.240;2022-07-23T10:14:29;5.45;;;2.70;;
22837;SDS011;11585;51.450;-0.240;2022-07-23T10:16:57;4.93;;;2.40;;
22837;SDS011;11585;51.450;-0.240;2022-07-23T10:19:24;6.38;;;3.15;;
22837;SDS011;11585;51.450;-0.240;2022-07-23T10:21:52;6.93;;;3.22;;
22837;SDS011;11585;51.450;-0.240;2022-07-23T10:24:41;5.95;;;2.55;;
22837;SDS011;11585;51.450;-0.240;2022-07-23T10:27:49;5.57;;;2.60;;
22837;SDS011;11585;51.450;-0.240;2022-07-23T10:31:02;5.60;;;2.50;;
22837;SDS011;11585;51.450;-0.240;2022-07-23T10:36:21;9.48;;;2.50;;
22837;SDS011;11585;51.450;-0.240;2022-07-23T10:39:05;8.80;;;2.78;;
22837;SDS011;11585;51.450;-0.240;2022-07-23T10:41:39;5.97;;;2.88;;
22837;SDS011;11585;51.450;-0.240;2022-07-23T10:44:10;5.22;;;2.50;;
22837;SDS011;11585;51.450;-0.240;2022-07-23T10:47:00;7.45;;;2.67;;
22837;SDS011;11585;51.450;-0.240;2022-07-23T10:49:36;5.10;;;2.45;;
22837;SDS011;11585;51.450;-0.240;2022-07-23T10:52:15;3.75;;;2.10;;
22837;SDS011;11585;51.450;-0.240;2022-07-23T10:57:46;5.35;;;2.40;;
22837;SDS011;11585;51.450;-0.240;2022-07-23T11:00:14;3.50;;;2.05;;
22837;SDS011;11585;51.450;-0.240;2022-07-23T11:02:51;6.00;;;2.55;;
22837;SDS011;11585;51.450;-0.240;2022-07-23T11:05:43;4.50;;;1.92;;
22837;SDS011;11585;51.450;-0.240;2022-07-23T11:32:17;6.68;;;1.70;;
22837;SDS011;11585;51.450;-0.240;2022-07-23T11:34:46;5.25;;;1.65;;
22837;SDS011;11585;51.450;-0.240;2022-07-23T11:40:09;4.68;;;2.00;;
22837;SDS011;11585;51.450;-0.240;2022-07-23T11:42:50;3.78;;;1.75;;
22837;SDS011;11585;51.450;-0.240;2022-07-23T11:45:17;12.68;;;2.72;;
22837;SDS011;11585;51.450;-0.240;2022-07-23T11:47:43;3.17;;;1.63;;
22837;SDS011;11585;51.450;-0.240;2022-07-23T11:50:09;5.63;;;1.83;;
22837;SDS011;11585;51.450;-0.240;2022-07-23T11:52:34;5.15;;;1.95;;
22837;SDS011;11585;51.450;-0.240;2022-07-23T11:55:02;4.22;;;1.80;;
22837;SDS011;11585;51.450;-0.240;2022-07-23T11:57:34;5.32;;;2.55;;
22837;SDS011;11585;51.450;-0.240;2022-07-23T12:00:07;6.05;;;1.55;;
22837;SDS011;11585;51.450;-0.240;2022-07-23T12:02:35;4.55;;;1.80;;
22837;SDS011;11585;51.450;-0.240;2022-07-23T12:05:01;4.20;;;2.30;;
22837;SDS011;11585;51.450;-0.240;2022-07-23T12:07:40;5.82;;;2.20;;
22837;SDS011;11585;51.450;-0.240;2022-07-23T12:10:14;2.35;;;1.40;;
22837;SDS011;11585;51.450;-0.240;2022-07-23T12:12:41;6.70;;;1.77;;
22837;SDS011;11585;51.450;-0.240;2022-07-23T12:15:10;2.65;;;1.65;;
22837;SDS011;11585;51.450;-0.240;2022-07-23T12:17:37;7.45;;;2.97;;
22837;SDS011;11585;51.450;-0.240;2022-07-23T12:20:06;2.88;;;1.90;;
22837;SDS011;11585;51.450;-0.240;2022-07-23T12:22:35;2.08;;;1.55;;
22837;SDS011;11585;51.450;-0.240;2022-07-23T12:25:04;8.80;;;3.75;;
22837;SDS011;11585;51.450;-0.240;2022-07-23T12:30:46;7.15;;;3.08;;
22837;SDS011;11585;51.450;-0.240;2022-07-23T12:33:23;4.13;;;2.00;;
22837;SDS011;11585;51.450;-0.240;2022-07-23T12:35:52;9.02;;;2.92;;
22837;SDS011;11585;51.450;-0.240;2022-07-23T12:38:23;11.82;;;3.00;;
22837;SDS011;11585;51.450;-0.240;2022-07-23T12:40:51;6.47;;;1.90;;
22837;SDS011;11585;51.450;-0.240;2022-07-23T12:43:28;3.42;;;2.10;;
22837;SDS011;11585;51.450;-0.240;2022-07-23T12:48:35;5.30;;;2.42;;
22837;SDS011;11585;51.450;-0.240;2022-07-23T12:51:18;6.22;;;2.28;;
22837;SDS011;11585;51.450;-0.240;2022-07-23T12:56:20;11.80;;;3.28;;
22837;SDS011;11585;51.450;-0.240;2022-07-23T12:58:55;3.75;;;1.75;;
22837;SDS011;11585;51.450;-0.240;2022-07-23T13:01:42;3.08;;;1.58;;
22837;SDS011;11585;51.450;-0.240;2022-07-23T13:04:20;9.30;;;3.75;;
22837;SDS011;11585;51.450;-0.240;2022-07-23T13:06:48;5.05;;;2.00;;
22837;SDS011;11585;51.450;-0.240;2022-07-23T13:09:23;5.43;;;1.38;;
22837;SDS011;11585;51.450;-0.240;2022-07-23T13:11:51;3.13;;;1.70;;
22837;SDS011;11585;51.450;-0.240;2022-07-23T13:14:18;2.25;;;1.50;;
22837;SDS011;11585;51.450;-0.240;2022-07-23T13:16:46;5.18;;;2.28;;
22837;SDS011;11585;51.450;-0.240;2022-07-23T13:19:13;3.97;;;1.55;;
22837;SDS011;11585;51.450;-0.240;2022-07-23T13:21:40;3.80;;;1.50;;
22837;SDS011;11585;51.450;-0.240;2022-07-23T13:24:07;6.80;;;1.92;;
22837;SDS011;11585;51.450;-0.240;2022-07-23T13:26:33;8.07;;;3.03;;
22837;SDS011;11585;51.450;-0.240;2022-07-23T13:29:00;7.30;;;1.75;;
22837;SDS011;11585;51.450;-0.240;2022-07-23T13:31:26;3.58;;;1.50;;
22837;SDS011;11585;51.450;-0.240;2022-07-23T13:33:52;5.78;;;2.30;;
22837;SDS011;11585;51.450;-0.240;2022-07-23T13:36:18;2.38;;;1.50;;
22837;SDS011;11585;51.450;-0.240;2022-07-23T13:38:44;5.65;;;1.98;;
22837;SDS011;11585;51.450;-0.240;2022-07-23T13:41:09;7.05;;;1.65;;
22837;SDS011;11585;51.450;-0.240;2022-07-23T13:43:35;3.72;;;1.60;;
22837;SDS011;11585;51.450;-0.240;2022-07-23T13:46:01;5.30;;;1.90;;
22837;SDS011;11585;51.450;-0.240;2022-07-23T13:48:28;9.98;;;3.58;;
22837;SDS011;11585;51.450;-0.240;2022-07-23T13:50:59;8.63;;;3.45;;
22837;SDS011;11585;51.450;-0.240;2022-07-23T13:53:25;7.68;;;2.85;;
22837;SDS011;11585;51.450;-0.240;2022-07-23T13:55:51;5.25;;;1.98;;
22837;SDS011;11585;51.450;-0.240;2022-07-23T13:58:19;3.08;;;2.03;;
22837;SDS011;11585;51.450;-0.240;2022-07-23T14:00:46;2.45;;;1.70;;
22837;SDS011;11585;51.450;-0.240;2022-07-23T14:03:17;2.40;;;1.60;;
22837;SDS011;11585;51.450;-0.240;2022-07-23T14:05:44;3.97;;;2.20;;
22837;SDS011;11585;51.450;-0.240;2022-07-23T14:08:12;2.22;;;1.70;;
22837;SDS011;11585;51.450;-0.240;2022-07-23T14:10:38;3.55;;;1.98;;
22837;SDS011;11585;51.450;-0.240;2022-07-23T14:13:04;4.57;;;1.80;;
22837;SDS011;11585;51.450;-0.240;2022-07-23T14:15:30;4.45;;;1.95;;
22837;SDS011;11585;51.450;-0.240;2022-07-23T14:18:02;2.80;;;1.80;;
22837;SDS011;11585;51.450;-0.240;2022-07-23T14:20:27;4.28;;;2.30;;
22837;SDS011;11585;51.450;-0.240;2022-07-23T14:22:53;5.05;;;2.28;;
22837;SDS011;11585;51.450;-0.240;2022-07-23T14:25:21;5.63;;;2.67;;
22837;SDS011;11585;51.450;-0.240;2022-07-23T14:27:46;5.47;;;2.45;;
22837;SDS011;11585;51.450;-0.240;2022-07-23T14:30:13;9.93;;;3.97;;
22837;SDS011;11585;51.450;-0.240;2022-07-23T14:32:40;2.95;;;1.98;;
22837;SDS011;11585;51.450;-0.240;2022-07-23T14:35:06;9.82;;;3.88;;
22837;SDS011;11585;51.450;-0.240;2022-07-23T14:37:32;4.45;;;1.98;;
22837;SDS011;11585;51.450;-0.240;2022-07-23T14:39:58;4.80;;;2.38;;
22837;SDS011;11585;51.450;-0.240;2022-07-23T14:42:24;4.20;;;2.35;;
22837;SDS011;11585;51.450;-0.240;2022-07-23T14:44:50;6.93;;;3.40;;
22837;SDS011;11585;51.450;-0.240;2022-07-23T14:47:16;7.28;;;2.80;;
22837;SDS011;11585;51.450;-0.240;2022-07-23T14:49:43;6.07;;;2.67;;
22837;SDS011;11585;51.450;-0.240;2022-07-23T14:52:09;4.47;;;2.10;;
22837;SDS011;11585;51.450;-0.240;2022-07-23T14:54:37;4.22;;;2.20;;
22837;SDS011;11585;51.450;-0.240;2022-07-23T14:59:29;7.53;;;3.03;;
22837;SDS011;11585;51.450;-0.240;2022-07-23T15:01:55;5.85;;;2.78;;
22837;SDS011;11585;51.450;-0.240;2022-07-23T15:04:22;5.97;;;2.03;;
22837;SDS011;11585;51.450;-0.240;2022-07-23T15:06:48;5.18;;;2.38;;
22837;SDS011;11585;51.450;-0.240;2022-07-23T15:09:15;6.75;;;3.15;;
22837;SDS011;11585;51.450;-0.240;2022-07-23T15:11:41;4.03;;;2.10;;
22837;SDS011;11585;51.450;-0.240;2022-07-23T15:14:07;6.05;;;2.72;;
22837;SDS011;11585;51.450;-0.240;2022-07-23T15:16:33;5.85;;;2.40;;
22837;SDS011;11585;51.450;-0.240;2022-07-23T15:18:59;5.07;;;2.50;;
22837;SDS011;11585;51.450;-0.240;2022-07-23T15:21:26;4.10;;;2.17;;
22837;SDS011;11585;51.450;-0.240;2022-07-23T15:23:54;7.50;;;2.80;;
22837;SDS011;11585;51.450;-0.240;2022-07-23T15:26:20;6.82;;;2.28;;
22837;SDS011;11585;51.450;-0.240;2022-07-23T15:28:48;9.50;;;2.58;;
22837;SDS011;11585;51.450;-0.240;2022-07-23T15:31:13;9.73;;;4.38;;
22837;SDS011;11585;51.450;-0.240;2022-07-23T15:33:39;5.75;;;3.40;;
22837;SDS011;11585;51.450;-0.240;2022-07-23T15:36:05;6.05;;;2.70;;
22837;SDS011;11585;51.450;-0.240;2022-07-23T15:38:32;6.10;;;2.65;;